createdAt,value
2019-05-29T00:00:32.356Z,1008.89
2019-05-29T00:01:32.319Z,1008.89
2019-05-29T00:02:32.339Z,1008.88
2019-05-29T00:03:32.357Z,1008.91
2019-05-29T00:04:32.377Z,1008.94
2019-05-29T00:05:32.396Z,1008.95
2019-05-29T00:06:32.416Z,1008.94
2019-05-29T00:07:32.436Z,1008.95
2019-05-29T00:08:32.471Z,1008.97
2019-05-29T00:09:32.479Z,1008.94
2019-05-29T00:10:32.495Z,1008.95
2019-05-29T00:12:32.535Z,1008.98
2019-05-29T00:13:32.558Z,1008.99
2019-05-29T00:14:32.573Z,1009.03
2019-05-29T00:15:32.594Z,1009.05
2019-05-29T00:16:32.612Z,1009.04
2019-05-29T00:17:32.635Z,1009.08
2019-05-29T00:18:32.652Z,1009.08
2019-05-29T00:19:32.672Z,1009.08
2019-05-29T00:20:32.692Z,1009.07
2019-05-29T00:21:32.717Z,1009.12
2019-05-29T00:22:32.731Z,1009.15
2019-05-29T00:23:32.751Z,1009.13
2019-05-29T00:24:32.769Z,1009.18
2019-05-29T00:25:32.792Z,1009.17
2019-05-29T00:26:32.811Z,1009.19
2019-05-29T00:28:32.847Z,1009.2
2019-05-29T00:29:32.867Z,1009.2
2019-05-29T00:30:32.888Z,1009.18
2019-05-29T00:31:32.906Z,1009.16
2019-05-29T00:32:32.940Z,1009.16
2019-05-29T00:33:32.947Z,1009.14
2019-05-29T00:34:32.965Z,1009.14
2019-05-29T00:35:32.984Z,1009.13
2019-05-29T00:36:33.004Z,1009.14
2019-05-29T00:37:33.024Z,1009.18
2019-05-29T00:38:33.043Z,1009.2
2019-05-29T00:39:33.062Z,1009.16
2019-05-29T00:40:33.083Z,1009.19
2019-05-29T00:41:33.103Z,1009.25
2019-05-29T00:42:33.121Z,1009.23
2019-05-29T00:44:34.506Z,1009.23
2019-05-29T00:45:33.180Z,1009.23
2019-05-29T00:46:33.198Z,1009.19
2019-05-29T00:47:33.230Z,1009.2
2019-05-29T00:48:33.238Z,1009.18
2019-05-29T00:49:33.259Z,1009.23
2019-05-29T00:50:33.275Z,1009.23
2019-05-29T00:51:33.295Z,1009.25
2019-05-29T00:52:33.315Z,1009.28
2019-05-29T00:53:33.334Z,1009.31
2019-05-29T00:54:33.354Z,1009.35
2019-05-29T00:55:33.373Z,1009.34
2019-05-29T00:56:33.393Z,1009.31
2019-05-29T00:57:33.414Z,1009.29
2019-05-29T00:59:33.451Z,1009.27
2019-05-29T01:00:33.470Z,1009.29
2019-05-29T01:01:33.513Z,1009.3
2019-05-29T01:02:33.509Z,1009.28
2019-05-29T01:03:33.529Z,1009.3
2019-05-29T01:04:33.547Z,1009.31
2019-05-29T01:05:33.567Z,1009.32
2019-05-29T01:06:33.592Z,1009.36
2019-05-29T01:07:33.605Z,1009.34
2019-05-29T01:08:33.625Z,1009.37
2019-05-29T01:09:33.644Z,1009.36
2019-05-29T01:10:33.664Z,1009.39
2019-05-29T01:11:33.683Z,1009.42
2019-05-29T01:12:33.703Z,1009.39
2019-05-29T01:13:33.722Z,1009.43
2019-05-29T01:14:47.226Z,1009.39
2019-05-29T01:15:33.760Z,1009.42
2019-05-29T01:16:33.780Z,1009.43
2019-05-29T01:17:33.799Z,1009.41
2019-05-29T01:18:33.818Z,1009.46
2019-05-29T01:19:33.837Z,1009.4
2019-05-29T01:20:33.857Z,1009.44
2019-05-29T01:21:33.877Z,1009.5
2019-05-29T01:22:33.910Z,1009.52
2019-05-29T01:23:33.915Z,1009.54
2019-05-29T01:24:33.935Z,1009.57
2019-05-29T01:25:33.954Z,1009.58
2019-05-29T01:26:33.976Z,1009.57
2019-05-29T01:27:34.001Z,1009.59
2019-05-29T01:28:34.016Z,1009.6
2019-05-29T01:29:34.030Z,1009.62
2019-05-29T01:31:34.069Z,1009.61
2019-05-29T01:32:34.089Z,1009.63
2019-05-29T01:33:34.107Z,1009.64
2019-05-29T01:34:34.127Z,1009.68
2019-05-29T01:35:34.149Z,1009.72
2019-05-29T01:36:34.166Z,1009.7
2019-05-29T01:37:34.184Z,1009.72
2019-05-29T01:38:34.204Z,1009.76
2019-05-29T01:39:34.262Z,1009.81
2019-05-29T01:40:34.242Z,1009.81
2019-05-29T01:41:34.263Z,1009.83
2019-05-29T01:42:34.280Z,1009.84
2019-05-29T01:43:34.300Z,1009.86
2019-05-29T01:44:34.319Z,1009.85
2019-05-29T01:45:34.338Z,1009.88
2019-05-29T01:47:34.380Z,1009.93
2019-05-29T01:48:34.400Z,1009.98
2019-05-29T01:49:34.415Z,1009.99
2019-05-29T01:50:34.439Z,1010.02
2019-05-29T01:51:34.454Z,1010.06
2019-05-29T01:52:34.475Z,1010.08
2019-05-29T01:53:34.492Z,1010.13
2019-05-29T01:54:34.511Z,1010.13
2019-05-29T01:55:34.529Z,1010.13
2019-05-29T01:56:34.548Z,1010.14
2019-05-29T01:57:34.568Z,1010.15
2019-05-29T01:58:34.587Z,1010.14
2019-05-29T01:59:34.606Z,1010.12
2019-05-29T02:00:34.625Z,1010.14
2019-05-29T02:01:34.645Z,1010.16
2019-05-29T02:03:34.683Z,1010.16
2019-05-29T02:04:34.701Z,1010.18
2019-05-29T02:05:34.721Z,1010.19
2019-05-29T02:06:34.739Z,1010.21
2019-05-29T02:07:34.759Z,1010.26
2019-05-29T02:08:34.778Z,1010.26
2019-05-29T02:09:34.797Z,1010.32
2019-05-29T02:10:34.821Z,1010.29
2019-05-29T02:11:34.835Z,1010.35
2019-05-29T02:12:34.855Z,1010.31
2019-05-29T02:13:34.875Z,1010.3
2019-05-29T02:14:34.893Z,1010.32
2019-05-29T02:15:34.911Z,1010.31
2019-05-29T02:16:34.932Z,1010.28
2019-05-29T02:17:34.999Z,1010.3
2019-05-29T02:19:34.988Z,1010.33
2019-05-29T02:20:35.010Z,1010.33
2019-05-29T02:21:35.031Z,1010.27
2019-05-29T02:22:35.045Z,1010.3
2019-05-29T02:23:35.064Z,1010.29
2019-05-29T02:24:35.085Z,1010.29
2019-05-29T02:25:35.102Z,1010.37
2019-05-29T02:26:35.121Z,1010.37
2019-05-29T02:27:35.140Z,1010.4
2019-05-29T02:28:35.158Z,1010.36
2019-05-29T02:29:35.178Z,1010.38
2019-05-29T02:30:35.198Z,1010.42
2019-05-29T02:31:35.216Z,1010.4
2019-05-29T02:32:35.236Z,1010.44
2019-05-29T02:34:35.275Z,1010.45
2019-05-29T02:35:35.297Z,1010.45
2019-05-29T02:36:35.313Z,1010.43
2019-05-29T02:37:35.334Z,1010.43
2019-05-29T02:38:35.350Z,1010.46
2019-05-29T02:39:35.368Z,1010.43
2019-05-29T02:40:35.388Z,1010.43
2019-05-29T02:41:35.410Z,1010.48
2019-05-29T02:42:35.425Z,1010.5
2019-05-29T02:43:35.445Z,1010.48
2019-05-29T02:44:35.475Z,1010.46
2019-05-29T02:45:52.444Z,1010.51
2019-05-29T02:46:35.503Z,1010.55
2019-05-29T02:47:35.522Z,1010.56
2019-05-29T02:48:35.540Z,1010.6
2019-05-29T02:49:35.559Z,1010.57
2019-05-29T02:50:35.577Z,1010.62
2019-05-29T02:51:35.598Z,1010.61
2019-05-29T02:52:35.617Z,1010.63
2019-05-29T02:53:35.642Z,1010.62
2019-05-29T02:54:35.654Z,1010.7
2019-05-29T02:55:35.674Z,1010.67
2019-05-29T02:56:35.697Z,1010.68
2019-05-29T02:57:35.713Z,1010.66
2019-05-29T02:58:35.734Z,1010.7
2019-05-29T02:59:35.753Z,1010.71
2019-05-29T03:00:35.769Z,1010.74
2019-05-29T03:01:35.791Z,1010.8
2019-05-29T03:02:35.810Z,1010.75
2019-05-29T03:03:39.615Z,1010.79
2019-05-29T03:04:35.849Z,1010.88
2019-05-29T03:06:35.884Z,1010.83
2019-05-29T03:07:35.902Z,1010.89
2019-05-29T03:08:35.919Z,1010.87
2019-05-29T03:09:35.938Z,1010.94
2019-05-29T03:10:35.959Z,1010.92
2019-05-29T03:11:35.978Z,1010.96
2019-05-29T03:12:35.996Z,1010.96
2019-05-29T03:13:36.015Z,1010.99
2019-05-29T03:14:36.036Z,1010.96
2019-05-29T03:15:36.051Z,1011.01
2019-05-29T03:16:36.072Z,1011.03
2019-05-29T03:17:36.098Z,1011.04
2019-05-29T03:18:36.113Z,1011.08
2019-05-29T03:19:36.129Z,1011.13
2019-05-29T03:20:36.148Z,1011.16
2019-05-29T03:22:36.203Z,1011.16
2019-05-29T03:23:36.616Z,1011.19
2019-05-29T03:24:36.228Z,1011.21
2019-05-29T03:25:37.016Z,1011.23
2019-05-29T03:26:38.191Z,1011.24
2019-05-29T03:27:38.020Z,1011.25
2019-05-29T03:28:37.978Z,1011.22
2019-05-29T03:29:38.297Z,1011.23
2019-05-29T03:30:41.979Z,1011.24
2019-05-29T03:31:42.699Z,1011.28
2019-05-29T03:32:43.262Z,1011.3
2019-05-29T03:33:44.430Z,1011.28
2019-05-29T03:34:41.725Z,1011.35
2019-05-29T03:35:42.911Z,1011.39
2019-05-29T03:36:43.405Z,1011.4
2019-05-29T03:38:36.491Z,1011.46
2019-05-29T03:39:36.512Z,1011.5
2019-05-29T03:40:36.529Z,1011.5
2019-05-29T03:41:36.548Z,1011.55
2019-05-29T03:42:36.570Z,1011.57
2019-05-29T03:43:36.584Z,1011.55
2019-05-29T03:44:36.606Z,1011.6
2019-05-29T03:45:37.906Z,1011.68
2019-05-29T03:46:42.610Z,1011.67
2019-05-29T03:47:37.189Z,1011.69
2019-05-29T03:48:38.353Z,1011.73
2019-05-29T03:49:37.387Z,1011.74
2019-05-29T03:50:38.161Z,1011.74
2019-05-29T03:51:38.449Z,1011.72
2019-05-29T03:52:38.592Z,1011.78
2019-05-29T03:54:38.557Z,1011.87
2019-05-29T03:55:37.859Z,1011.88
2019-05-29T03:56:36.848Z,1011.91
2019-05-29T03:57:38.062Z,1011.93
2019-05-29T03:58:37.689Z,1011.9
2019-05-29T03:59:37.396Z,1011.94
2019-05-29T04:00:45.355Z,1011.98
2019-05-29T04:01:37.381Z,1012
2019-05-29T04:02:38.124Z,1012.02
2019-05-29T04:03:38.013Z,1012.1
2019-05-29T04:04:38.184Z,1012.02
2019-05-29T04:05:37.929Z,1012.07
2019-05-29T04:06:37.504Z,1012.11
2019-05-29T04:07:38.026Z,1012.08
2019-05-29T04:09:37.386Z,1012.13
2019-05-29T04:10:37.884Z,1012.16
2019-05-29T04:11:37.802Z,1012.15
2019-05-29T04:12:38.005Z,1012.19
2019-05-29T04:13:38.682Z,1012.26
2019-05-29T04:14:37.834Z,1012.24
2019-05-29T04:15:38.533Z,1012.24
2019-05-29T04:16:58.072Z,1012.27
2019-05-29T04:17:37.849Z,1012.29
2019-05-29T04:18:38.075Z,1012.33
2019-05-29T04:19:38.576Z,1012.33
2019-05-29T04:20:38.676Z,1012.36
2019-05-29T04:21:38.585Z,1012.37
2019-05-29T04:22:38.326Z,1012.4
2019-05-29T04:23:38.246Z,1012.4
2019-05-29T04:24:38.178Z,1012.37
2019-05-29T04:25:41.859Z,1012.35
2019-05-29T04:26:37.946Z,1012.36
2019-05-29T04:27:38.420Z,1012.43
2019-05-29T04:28:38.975Z,1012.39
2019-05-29T04:29:38.400Z,1012.43
2019-05-29T04:30:38.981Z,1012.41
2019-05-29T04:31:38.392Z,1012.46
2019-05-29T04:32:38.573Z,1012.47
2019-05-29T04:33:38.880Z,1012.46
2019-05-29T04:34:38.256Z,1012.48
2019-05-29T04:35:39.495Z,1012.52
2019-05-29T04:36:39.065Z,1012.51
2019-05-29T04:37:39.625Z,1012.55
2019-05-29T04:38:38.381Z,1012.6
2019-05-29T04:39:39.044Z,1012.62
2019-05-29T04:41:39.170Z,1012.65
2019-05-29T04:42:39.877Z,1012.69
2019-05-29T04:43:39.234Z,1012.69
2019-05-29T04:44:39.011Z,1012.72
2019-05-29T04:45:39.946Z,1012.76
2019-05-29T04:46:38.376Z,1012.75
2019-05-29T04:47:39.313Z,1012.76
2019-05-29T04:48:40.153Z,1012.8
2019-05-29T04:49:39.428Z,1012.83
2019-05-29T04:50:39.920Z,1012.81
2019-05-29T04:51:39.668Z,1012.86
2019-05-29T04:52:39.824Z,1012.85
2019-05-29T04:53:39.617Z,1012.82
2019-05-29T04:54:39.946Z,1012.85
2019-05-29T04:55:38.987Z,1012.87
2019-05-29T04:57:39.225Z,1012.88
2019-05-29T04:58:39.059Z,1012.91
2019-05-29T04:59:39.237Z,1012.94
2019-05-29T05:00:39.240Z,1012.98
2019-05-29T05:01:39.192Z,1012.95
2019-05-29T05:02:39.247Z,1012.93
2019-05-29T05:03:39.011Z,1012.91
2019-05-29T05:04:39.302Z,1012.97
2019-05-29T05:05:39.417Z,1012.91
2019-05-29T05:06:39.237Z,1012.96
2019-05-29T05:07:39.466Z,1012.99
2019-05-29T05:08:39.505Z,1013.03
2019-05-29T05:09:39.521Z,1013.04
2019-05-29T05:10:38.317Z,1013.09
2019-05-29T05:11:38.311Z,1013.12
2019-05-29T05:13:38.351Z,1013.14
2019-05-29T05:14:38.371Z,1013.18
2019-05-29T05:15:38.392Z,1013.19
2019-05-29T05:16:38.413Z,1013.19
2019-05-29T05:17:38.432Z,1013.23
2019-05-29T05:18:38.453Z,1013.27
2019-05-29T05:19:38.473Z,1013.26
2019-05-29T05:20:38.554Z,1013.29
2019-05-29T05:21:38.513Z,1013.33
2019-05-29T05:22:38.534Z,1013.35
2019-05-29T05:23:38.554Z,1013.36
2019-05-29T05:24:41.922Z,1013.37
2019-05-29T05:25:38.604Z,1013.39
2019-05-29T05:26:38.616Z,1013.43
2019-05-29T05:27:38.636Z,1013.47
2019-05-29T05:29:38.678Z,1013.56
2019-05-29T05:30:38.699Z,1013.57
2019-05-29T05:31:38.720Z,1013.6
2019-05-29T05:32:39.002Z,1013.73
2019-05-29T05:33:38.762Z,1013.76
2019-05-29T05:34:38.851Z,1013.92
2019-05-29T05:35:38.874Z,1013.78
2019-05-29T05:36:38.931Z,1013.85
2019-05-29T05:37:38.944Z,1014.01
2019-05-29T05:38:38.869Z,1014
2019-05-29T05:39:39.085Z,1013.93
2019-05-29T05:40:41.111Z,1013.77
2019-05-29T05:41:39.057Z,1013.71
2019-05-29T05:42:39.037Z,1013.73
2019-05-29T05:44:39.134Z,1013.79
2019-05-29T05:45:39.240Z,1013.86
2019-05-29T05:46:39.230Z,1013.95
2019-05-29T05:47:53.399Z,1014.08
2019-05-29T05:48:39.277Z,1014.28
2019-05-29T05:49:39.488Z,1014.32
2019-05-29T05:50:39.403Z,1014.26
2019-05-29T05:51:42.679Z,1014.33
2019-05-29T05:52:39.508Z,1014.3
2019-05-29T05:53:39.507Z,1014.31
2019-05-29T05:54:39.535Z,1014.3
2019-05-29T05:55:39.744Z,1014.32
2019-05-29T05:56:39.667Z,1014.17
2019-05-29T05:57:39.718Z,1014.45
2019-05-29T05:58:39.907Z,1014.53
2019-05-29T05:59:39.860Z,1014.63
2019-05-29T06:00:39.861Z,1014.68
2019-05-29T06:01:40.011Z,1014.73
2019-05-29T06:02:40.090Z,1014.71
2019-05-29T06:03:40.550Z,1014.71
2019-05-29T06:04:39.983Z,1014.68
2019-05-29T06:05:40.189Z,1014.63
2019-05-29T06:06:40.229Z,1014.88
2019-05-29T06:07:40.371Z,1014.75
2019-05-29T06:08:40.206Z,1014.47
2019-05-29T06:09:40.398Z,1014.48
2019-05-29T06:10:40.222Z,1014.44
2019-05-29T06:11:40.360Z,1014.46
2019-05-29T06:12:40.581Z,1014.48
2019-05-29T06:13:40.466Z,1014.53
2019-05-29T06:14:40.625Z,1014.47
2019-05-29T06:16:40.678Z,1014.51
2019-05-29T06:17:40.716Z,1014.54
2019-05-29T06:18:40.618Z,1014.61
2019-05-29T06:19:41.126Z,1014.71
2019-05-29T06:20:40.946Z,1014.57
2019-05-29T06:21:40.869Z,1014.61
2019-05-29T06:22:41.111Z,1014.67
2019-05-29T06:23:41.091Z,1014.88
2019-05-29T06:24:40.966Z,1014.73
2019-05-29T06:25:40.741Z,1014.8
2019-05-29T06:26:41.029Z,1014.85
2019-05-29T06:27:41.331Z,1014.78
2019-05-29T06:28:41.171Z,1015.05
2019-05-29T06:29:41.235Z,1014.84
2019-05-29T06:30:41.173Z,1014.83
2019-05-29T06:32:41.466Z,1014.97
2019-05-29T06:33:41.432Z,1014.88
2019-05-29T06:34:41.302Z,1014.83
2019-05-29T06:35:41.586Z,1014.87
2019-05-29T06:36:41.523Z,1015.11
2019-05-29T06:37:41.522Z,1014.94
2019-05-29T06:38:41.789Z,1014.99
2019-05-29T06:39:41.703Z,1015.16
2019-05-29T06:40:41.950Z,1015.16
2019-05-29T06:41:40.456Z,1015.06
2019-05-29T06:42:40.498Z,1015.13
2019-05-29T06:43:40.511Z,1014.98
2019-05-29T06:44:41.867Z,1015.02
2019-05-29T06:45:40.560Z,1015.09
2019-05-29T06:46:40.636Z,1015.16
2019-05-29T06:48:49.974Z,1015.1
2019-05-29T06:49:40.665Z,1015.08
2019-05-29T06:50:41.461Z,1015.07
2019-05-29T06:51:41.315Z,1015.1
2019-05-29T06:52:41.407Z,1015.23
2019-05-29T06:53:41.744Z,1015.21
2019-05-29T06:54:41.988Z,1015.17
2019-05-29T06:55:42.090Z,1015.16
2019-05-29T06:56:41.735Z,1015.13
2019-05-29T06:57:42.606Z,1015.32
2019-05-29T06:58:41.865Z,1015.28
2019-05-29T06:59:42.287Z,1015.42
2019-05-29T07:00:41.180Z,1015.39
2019-05-29T07:01:41.695Z,1015.36
2019-05-29T07:02:41.002Z,1015.51
2019-05-29T07:04:41.055Z,1015.72
2019-05-29T07:05:46.269Z,1015.75
2019-05-29T07:06:41.108Z,1015.75
2019-05-29T07:07:42.330Z,1015.82
2019-05-29T07:08:44.856Z,1015.95
2019-05-29T07:09:41.188Z,1016.01
2019-05-29T07:10:42.574Z,1016.26
2019-05-29T07:11:41.376Z,1016.15
2019-05-29T07:12:42.362Z,1016.12
2019-05-29T07:13:43.733Z,1016.14
2019-05-29T07:14:42.400Z,1016.18
2019-05-29T07:15:42.806Z,1016.32
2019-05-29T07:16:49.451Z,1016.23
2019-05-29T07:17:42.433Z,1016.42
2019-05-29T07:21:06.120Z,1016.3
2019-05-29T07:22:06.149Z,1016.41
2019-05-29T07:23:06.178Z,1015.55
2019-05-29T07:24:06.207Z,1015.52
2019-05-29T07:25:06.234Z,1016.57
2019-05-29T07:26:06.262Z,1016.56
2019-05-29T07:27:06.297Z,1015.74
2019-05-29T07:28:06.320Z,1016.07
2019-05-29T07:29:08.207Z,1015.77
2019-05-29T07:30:06.376Z,1015.84
2019-05-29T07:32:06.432Z,1016.7
2019-05-29T07:33:06.459Z,1016.74
2019-05-29T07:34:06.488Z,1016.79
2019-05-29T07:35:06.517Z,1016.84
2019-05-29T07:36:06.544Z,1016.8
2019-05-29T07:37:06.572Z,1016.9
2019-05-29T07:38:06.599Z,1016.78
2019-05-29T07:39:06.628Z,1016.74
2019-05-29T07:40:06.656Z,1016.68
2019-05-29T07:41:06.691Z,1016.55
2019-05-29T07:42:06.712Z,1016.67
2019-05-29T07:43:06.741Z,1016.67
2019-05-29T07:44:06.774Z,1016.54
2019-05-29T07:45:06.800Z,1016.45
2019-05-29T07:46:06.828Z,1016.27
2019-05-29T07:48:06.883Z,1016.51
2019-05-29T07:49:06.913Z,1015.75
2019-05-29T07:50:06.941Z,1016.48
2019-05-29T07:51:07.478Z,1015.67
2019-05-29T07:52:06.997Z,1015.71
2019-05-29T07:53:07.026Z,1016.49
2019-05-29T07:54:07.067Z,1016.46
2019-05-29T07:55:07.091Z,1016.46
2019-05-29T07:56:21.538Z,1016.41
2019-05-29T07:57:07.137Z,1016.47
2019-05-29T07:58:07.165Z,1016.41
2019-05-29T07:59:07.193Z,1016.41
2019-05-29T08:00:07.221Z,1016.43
2019-05-29T08:01:13.052Z,1016.2
2019-05-29T08:02:07.276Z,1015.93
2019-05-29T08:04:07.335Z,1016.48
2019-05-29T08:05:07.362Z,1016.32
2019-05-29T08:06:07.389Z,1016.23
2019-05-29T08:07:07.425Z,1015.88
2019-05-29T08:08:07.446Z,1015.74
2019-05-29T08:09:07.474Z,1016.37
2019-05-29T08:10:07.503Z,1016.32
2019-05-29T08:11:07.531Z,1016.29
2019-05-29T08:12:07.559Z,1015.79
2019-05-29T08:13:07.587Z,1016.28
2019-05-29T08:14:07.615Z,1016.28
2019-05-29T08:15:07.644Z,1016.29
2019-05-29T08:16:07.673Z,1015.83
2019-05-29T08:17:07.708Z,1015.76
2019-05-29T08:19:08.155Z,1015.79
2019-05-29T08:20:08.124Z,1015.87
2019-05-29T08:21:07.813Z,1015.86
2019-05-29T08:22:07.841Z,1015.81
2019-05-29T08:23:07.868Z,1015.82
2019-05-29T08:24:07.895Z,1015.82
2019-05-29T08:25:07.922Z,1015.91
2019-05-29T08:26:07.949Z,1015.9
2019-05-29T08:27:07.975Z,1015.89
2019-05-29T08:28:08.021Z,1015.92
2019-05-29T08:29:08.028Z,1016.02
2019-05-29T08:30:08.054Z,1016.42
2019-05-29T08:31:08.080Z,1016.39
2019-05-29T08:32:08.105Z,1016.31
2019-05-29T08:33:08.131Z,1016.32
2019-05-29T08:34:08.162Z,1016.35
2019-05-29T08:35:08.185Z,1016.3
2019-05-29T08:36:08.210Z,1016.38
2019-05-29T08:37:08.235Z,1016.37
2019-05-29T08:38:08.261Z,1016.36
2019-05-29T08:39:08.287Z,1016.46
2019-05-29T08:40:08.313Z,1016.47
2019-05-29T08:41:08.340Z,1016.51
2019-05-29T08:42:22.323Z,1016.6
2019-05-29T08:43:08.394Z,1016.51
2019-05-29T08:44:08.421Z,1016.58
2019-05-29T08:45:08.453Z,1016.56
2019-05-29T08:46:08.476Z,1016.53
2019-05-29T08:47:10.778Z,1016.46
2019-05-29T08:48:08.532Z,1016.36
2019-05-29T08:49:08.557Z,1016.32
2019-05-29T08:51:08.613Z,1016.31
2019-05-29T08:52:12.039Z,1016.34
2019-05-29T08:53:08.668Z,1016.36
2019-05-29T08:54:22.838Z,1016.3
2019-05-29T08:55:08.726Z,1016.29
2019-05-29T08:56:08.754Z,1016.27
2019-05-29T08:57:08.782Z,1016.19
2019-05-29T08:58:08.844Z,1016.15
2019-05-29T08:59:08.839Z,1016.17
2019-05-29T09:00:08.868Z,1016.12
2019-05-29T09:01:08.896Z,1016.15
2019-05-29T09:02:08.926Z,1016.19
2019-05-29T09:03:08.953Z,1016.24
2019-05-29T09:04:08.993Z,1016.22
2019-05-29T09:05:09.007Z,1016.21
2019-05-29T09:07:09.061Z,1016.27
2019-05-29T09:08:09.088Z,1016.23
2019-05-29T09:09:09.115Z,1016.21
2019-05-29T09:10:09.149Z,1016.37
2019-05-29T09:11:09.168Z,1016.38
2019-05-29T09:12:09.199Z,1016.32
2019-05-29T09:13:09.230Z,1016.27
2019-05-29T09:14:09.247Z,1016.32
2019-05-29T09:15:09.653Z,1016.31
2019-05-29T09:16:09.300Z,1016.31
2019-05-29T09:17:09.344Z,1016.34
2019-05-29T09:18:09.352Z,1016.36
2019-05-29T09:19:09.378Z,1016.34
2019-05-29T09:20:25.872Z,1016.3
2019-05-29T09:21:09.655Z,1016.26
2019-05-29T09:22:09.682Z,1016.22
2019-05-29T09:23:09.707Z,1016.28
2019-05-29T09:24:09.762Z,1016.32
2019-05-29T09:26:14.719Z,1016.27
2019-05-29T09:27:09.815Z,1016.36
2019-05-29T09:28:09.842Z,1016.38
2019-05-29T09:29:09.868Z,1016.31
2019-05-29T09:30:09.895Z,1016.31
2019-05-29T09:31:09.925Z,1016.35
2019-05-29T09:32:09.951Z,1016.31
2019-05-29T09:33:09.975Z,1016.33
2019-05-29T09:34:10.003Z,1016.36
2019-05-29T09:35:10.029Z,1016.39
2019-05-29T09:36:10.055Z,1016.38
2019-05-29T09:37:10.087Z,1016.33
2019-05-29T09:38:10.109Z,1016.3
2019-05-29T09:39:10.135Z,1016.33
2019-05-29T09:40:10.161Z,1016.32
2019-05-29T09:42:10.214Z,1016.35
2019-05-29T09:43:10.240Z,1016.48
2019-05-29T09:44:25.041Z,1016.45
2019-05-29T09:45:10.291Z,1016.35
2019-05-29T09:46:10.323Z,1016.44
2019-05-29T09:47:10.343Z,1016.48
2019-05-29T09:48:10.369Z,1016.45
2019-05-29T09:49:10.394Z,1016.43
2019-05-29T09:50:10.419Z,1016.41
2019-05-29T09:51:20.513Z,1016.4
2019-05-29T09:52:10.470Z,1016.51
2019-05-29T09:53:10.496Z,1016.48
2019-05-29T09:54:10.569Z,1016.49
2019-05-29T09:55:10.547Z,1016.57
2019-05-29T09:57:10.598Z,1016.53
2019-05-29T09:58:10.623Z,1016.57
2019-05-29T09:59:10.648Z,1016.49
2019-05-29T10:00:10.675Z,1016.53
2019-05-29T10:01:22.568Z,1016.51
2019-05-29T10:02:10.725Z,1016.52
2019-05-29T10:03:10.750Z,1016.52
2019-05-29T10:04:10.776Z,1016.48
2019-05-29T10:05:10.801Z,1016.61
2019-05-29T10:06:10.829Z,1016.49
2019-05-29T10:07:10.867Z,1016.57
2019-05-29T10:08:10.886Z,1016.63
2019-05-29T10:09:10.905Z,1016.62
2019-05-29T10:10:10.931Z,1016.58
2019-05-29T10:11:11.405Z,1016.56
2019-05-29T10:12:10.995Z,1016.54
2019-05-29T10:13:11.009Z,1016.55
2019-05-29T10:14:11.036Z,1016.48
2019-05-29T10:15:11.062Z,1016.63
2019-05-29T10:16:11.100Z,1016.61
2019-05-29T10:17:12.836Z,1016.61
2019-05-29T10:18:30.394Z,1016.59
2019-05-29T10:19:11.166Z,1016.63
2019-05-29T10:20:11.198Z,1016.63
2019-05-29T10:21:11.219Z,1016.63
2019-05-29T10:22:11.242Z,1016.6
2019-05-29T10:23:11.268Z,1016.61
2019-05-29T10:24:11.313Z,1016.68
2019-05-29T10:25:11.335Z,1016.68
2019-05-29T10:26:11.345Z,1016.62
2019-05-29T10:27:11.370Z,1016.63
2019-05-29T10:31:08.220Z,1016.63
2019-05-29T10:32:08.244Z,1016.63
2019-05-29T10:33:08.270Z,1016.64
2019-05-29T10:35:08.321Z,1016.69
2019-05-29T10:36:08.346Z,1016.7
2019-05-29T10:37:08.374Z,1016.64
2019-05-29T10:38:08.398Z,1016.7
2019-05-29T10:39:08.423Z,1016.65
2019-05-29T10:40:08.451Z,1016.71
2019-05-29T10:41:08.476Z,1016.69
2019-05-29T10:42:08.502Z,1016.72
2019-05-29T10:43:08.526Z,1016.7
2019-05-29T10:44:12.336Z,1016.72
2019-05-29T10:45:08.578Z,1016.73
2019-05-29T10:46:08.605Z,1016.68
2019-05-29T10:47:08.630Z,1016.71
2019-05-29T10:48:08.690Z,1016.68
2019-05-29T10:49:08.682Z,1016.65
2019-05-29T10:51:08.731Z,1016.73
2019-05-29T10:52:15.218Z,1016.74
2019-05-29T10:53:08.782Z,1016.75
2019-05-29T10:54:08.808Z,1016.76
2019-05-29T10:55:08.835Z,1016.76
2019-05-29T10:56:08.859Z,1016.74
2019-05-29T10:57:08.887Z,1016.73
2019-05-29T10:58:08.911Z,1016.72
2019-05-29T10:59:08.935Z,1016.78
2019-05-29T11:00:08.963Z,1016.76
2019-05-29T11:01:08.985Z,1016.86
2019-05-29T11:02:09.010Z,1016.9
2019-05-29T11:03:09.040Z,1016.78
2019-05-29T11:04:09.061Z,1016.76
2019-05-29T11:05:09.089Z,1016.7
2019-05-29T11:07:09.143Z,1016.65
2019-05-29T11:08:09.162Z,1016.62
2019-05-29T11:09:09.185Z,1016.68
2019-05-29T11:10:11.167Z,1016.65
2019-05-29T11:11:09.237Z,1016.73
2019-05-29T11:12:09.260Z,1016.71
2019-05-29T11:13:09.283Z,1016.66
2019-05-29T11:14:09.309Z,1016.68
2019-05-29T11:15:20.605Z,1016.66
2019-05-29T11:16:09.357Z,1016.67
2019-05-29T11:17:09.390Z,1016.69
2019-05-29T11:18:09.406Z,1016.7
2019-05-29T11:19:09.431Z,1016.67
2019-05-29T11:20:09.457Z,1016.72
2019-05-29T11:22:25.031Z,1016.76
2019-05-29T11:23:09.531Z,1016.69
2019-05-29T11:24:09.555Z,1016.64
2019-05-29T11:25:22.336Z,1016.65
2019-05-29T11:26:09.603Z,1016.65
2019-05-29T11:27:09.627Z,1016.67
2019-05-29T11:28:09.652Z,1016.68
2019-05-29T11:29:09.677Z,1016.67
2019-05-29T11:30:09.713Z,1016.69
2019-05-29T11:31:09.724Z,1016.67
2019-05-29T11:32:09.749Z,1016.62
2019-05-29T11:33:09.780Z,1016.69
2019-05-29T11:34:09.796Z,1016.64
2019-05-29T11:35:09.821Z,1016.65
2019-05-29T11:36:13.301Z,1016.61
2019-05-29T11:37:09.870Z,1016.58
2019-05-29T11:38:09.895Z,1016.59
2019-05-29T11:39:09.918Z,1016.59
2019-05-29T11:40:09.942Z,1016.61
2019-05-29T11:41:24.959Z,1016.6
2019-05-29T11:42:24.127Z,1016.63
2019-05-29T11:43:10.015Z,1016.64
2019-05-29T11:44:10.040Z,1016.66
2019-05-29T11:45:10.063Z,1016.64
2019-05-29T11:46:10.087Z,1016.59
2019-05-29T11:47:10.113Z,1016.68
2019-05-29T11:48:10.138Z,1016.67
2019-05-29T11:49:10.158Z,1016.64
2019-05-29T11:50:18.997Z,1016.64
2019-05-29T11:51:10.209Z,1016.64
2019-05-29T11:52:23.164Z,1016.61
2019-05-29T11:54:10.279Z,1016.59
2019-05-29T11:55:10.318Z,1016.62
2019-05-29T11:56:10.327Z,1016.58
2019-05-29T11:57:10.354Z,1016.56
2019-05-29T11:58:10.420Z,1016.66
2019-05-29T11:59:10.404Z,1016.71
2019-05-29T12:00:19.343Z,1016.7
2019-05-29T12:01:10.447Z,1016.71
2019-05-29T12:02:10.480Z,1016.71
2019-05-29T12:03:10.495Z,1016.7
2019-05-29T12:04:23.970Z,1016.72
2019-05-29T12:05:10.543Z,1016.65
2019-05-29T12:06:10.568Z,1016.66
2019-05-29T12:07:10.593Z,1016.73
2019-05-29T12:08:10.616Z,1016.72
2019-05-29T12:10:10.766Z,1016.67
2019-05-29T12:11:10.688Z,1016.62
2019-05-29T12:12:10.720Z,1016.62
2019-05-29T12:13:10.737Z,1016.59
2019-05-29T12:14:10.761Z,1016.66
2019-05-29T12:15:14.615Z,1016.64
2019-05-29T12:16:10.809Z,1016.62
2019-05-29T12:17:10.835Z,1016.67
2019-05-29T12:18:22.487Z,1016.71
2019-05-29T12:19:10.884Z,1016.68
2019-05-29T12:20:26.694Z,1016.69
2019-05-29T12:21:10.932Z,1016.68
2019-05-29T12:22:10.958Z,1016.71
2019-05-29T12:23:24.697Z,1016.73
2019-05-29T12:24:11.004Z,1016.73
2019-05-29T12:26:21.373Z,1016.66
2019-05-29T12:27:11.079Z,1016.68
2019-05-29T12:28:11.110Z,1016.72
2019-05-29T12:29:11.991Z,1016.67
2019-05-29T12:30:11.162Z,1016.63
2019-05-29T12:31:11.173Z,1016.68
2019-05-29T12:32:12.290Z,1016.64
2019-05-29T12:33:11.220Z,1016.62
2019-05-29T12:34:18.598Z,1016.62
2019-05-29T12:35:11.269Z,1016.63
2019-05-29T12:36:11.292Z,1016.63
2019-05-29T12:37:11.317Z,1016.6
2019-05-29T12:38:11.341Z,1016.63
2019-05-29T12:39:11.369Z,1016.67
2019-05-29T12:40:11.389Z,1016.67
2019-05-29T12:42:11.449Z,1016.75
2019-05-29T12:43:25.821Z,1016.66
2019-05-29T12:44:11.485Z,1016.64
2019-05-29T12:45:11.510Z,1016.66
2019-05-29T12:46:11.533Z,1016.64
2019-05-29T12:47:11.559Z,1016.61
2019-05-29T12:48:14.396Z,1016.58
2019-05-29T12:49:11.604Z,1016.6
2019-05-29T12:50:11.629Z,1016.64
2019-05-29T12:51:11.652Z,1016.69
2019-05-29T12:52:11.689Z,1016.65
2019-05-29T12:53:28.621Z,1016.69